Time;durP1;ratioP1;P1;durP2;ratioP2;P2;SDS_P1;SDS_P2;PMS_P1;PMS_P2;Temp;Humidity;BMP_temperature;BMP_pressure;BME280_temperature;BME280_humidity;BME280_pressure;Samples;Min_cycle;Max_cycle;Signal;HPM_P1;HPM_P2
2022/11/16 00:01:36;;;;;;;8.90;5.90;;;10.70;99.90;;;;;;5049775;28;20070;-76
2022/11/16 00:04:03;;;;;;;9.43;5.82;;;10.70;99.90;;;;;;5047687;28;20494;-76
2022/11/16 00:06:29;;;;;;;6.30;5.10;;;10.60;99.90;;;;;;5049987;28;20460;-76
2022/11/16 00:11:53;;;;;;;9.23;5.15;;;10.70;99.90;;;;;;5049113;28;20124;-75
2022/11/16 00:14:27;;;;;;;8.95;5.18;;;10.60;99.90;;;;;;5050515;28;20021;-76
2022/11/16 00:16:53;;;;;;;;;;;10.60;99.90;;;;;;5049715;28;20035;-75
2022/11/16 00:19:26;;;;;;;9.07;4.88;;;10.60;99.90;;;;;;5050923;28;19909;-76
2022/11/16 00:21:55;;;;;;;9.98;4.70;;;10.60;99.90;;;;;;5048284;28;20104;-76
2022/11/16 00:24:22;;;;;;;8.73;5.28;;;10.60;99.90;;;;;;5050193;28;20063;-76
2022/11/16 00:27:00;;;;;;;11.25;5.50;;;10.60;99.90;;;;;;5048084;28;20024;-74
2022/11/16 00:29:28;;;;;;;10.55;4.95;;;10.60;99.90;;;;;;5049351;28;20029;-76
2022/11/16 00:32:00;;;;;;;9.43;5.70;;;10.60;99.90;;;;;;5050572;28;20044;-75
2022/11/16 00:34:32;;;;;;;9.45;4.75;;;10.60;99.90;;;;;;5050659;28;20025;-76
2022/11/16 00:36:58;;;;;;;7.63;4.82;;;10.60;99.90;;;;;;5049926;28;20086;-75
2022/11/16 00:39:33;;;;;;;9.40;4.95;;;10.60;99.90;;;;;;5044969;28;20033;-76
2022/11/16 00:41:58;;;;;;;7.38;4.05;;;10.50;99.90;;;;;;5049517;28;20021;-75
2022/11/16 00:44:24;;;;;;;7.57;4.50;;;10.50;99.90;;;;;;5047005;28;20031;-75
2022/11/16 00:46:53;;;;;;;6.82;4.18;;;10.50;99.90;;;;;;5048703;28;20055;-76
2022/11/16 00:49:19;;;;;;;6.13;4.25;;;10.50;99.90;;;;;;5051719;28;20105;-76
2022/11/16 00:51:57;;;;;;;7.40;3.75;;;10.40;99.90;;;;;;5047120;28;20478;-75
2022/11/16 00:54:25;;;;;;;5.40;3.83;;;10.40;99.90;;;;;;5046048;28;20021;-76
2022/11/16 00:56:51;;;;;;;5.78;3.33;;;10.40;99.90;;;;;;5050676;28;20406;-74
2022/11/16 00:59:22;;;;;;;7.53;4.18;;;10.40;99.90;;;;;;5047025;28;20136;-76
2022/11/16 01:01:48;;;;;;;6.75;3.60;;;10.40;99.90;;;;;;5050184;28;20119;-76
2022/11/16 01:04:20;;;;;;;7.15;3.47;;;10.40;99.90;;;;;;5050060;28;20067;-76
2022/11/16 01:06:51;;;;;;;5.25;3.42;;;10.40;99.90;;;;;;5045998;28;20909;-75
2022/11/16 01:09:23;;;;;;;8.98;3.53;;;10.40;99.90;;;;;;5050831;28;20020;-73
2022/11/16 01:14:49;;;;;;;5.03;2.50;;;10.30;99.90;;;;;;5045941;28;20048;-73
2022/11/16 01:17:14;;;;;;;7.03;2.78;;;10.30;99.90;;;;;;5048547;28;20049;-73
2022/11/16 01:19:40;;;;;;;4.70;2.97;;;10.30;99.90;;;;;;5048039;28;20402;-72
2022/11/16 01:22:06;;;;;;;5.60;3.03;;;10.30;99.90;;;;;;5049010;28;20109;-73
2022/11/16 01:24:35;;;;;;;3.40;1.83;;;10.30;99.90;;;;;;5049739;28;20043;-72
2022/11/16 01:27:09;;;;;;;4.63;1.95;;;10.40;99.90;;;;;;5047195;28;20044;-72
2022/11/16 01:29:35;;;;;;;3.00;2.08;;;10.30;99.90;;;;;;5045803;28;20032;-72
2022/11/16 01:32:04;;;;;;;5.00;1.88;;;10.40;99.90;;;;;;5047776;28;20017;-72
2022/11/16 01:34:36;;;;;;;3.95;1.92;;;10.40;99.90;;;;;;5049217;28;20120;-73
2022/11/16 01:37:04;;;;;;;4.30;2.10;;;10.40;99.90;;;;;;5047019;28;20033;-73
2022/11/16 01:39:30;;;;;;;4.60;2.22;;;10.40;99.90;;;;;;5047450;28;20485;-73
2022/11/16 01:41:58;;;;;;;4.32;2.15;;;10.40;99.90;;;;;;5048464;28;20032;-73
2022/11/16 01:44:33;;;;;;;5.45;2.67;;;10.40;99.90;;;;;;5045469;28;20055;-73
2022/11/16 01:47:00;;;;;;;6.07;2.95;;;10.40;99.90;;;;;;5043013;28;20032;-73
2022/11/16 01:49:29;;;;;;;4.55;2.38;;;10.40;99.90;;;;;;5046976;28;20031;-72
2022/11/16 01:52:10;;;;;;;4.05;2.53;;;10.40;99.90;;;;;;5046840;28;20029;-73
2022/11/16 01:54:44;;;;;;;5.82;2.13;;;10.40;99.90;;;;;;5046563;28;20077;-73
2022/11/16 01:57:14;;;;;;;4.70;2.35;;;10.30;99.90;;;;;;5044821;28;20044;-73
2022/11/16 01:59:42;;;;;;;2.90;1.58;;;10.30;99.90;;;;;;5044757;28;20029;-72
2022/11/16 02:02:10;;;;;;;4.20;1.60;;;10.30;99.90;;;;;;5048234;28;20025;-72
2022/11/16 02:04:39;;;;;;;4.57;1.60;;;10.30;99.90;;;;;;5043488;28;20040;-72
2022/11/16 02:07:30;;;;;;;3.38;1.33;;;10.30;99.90;;;;;;5045871;28;20037;-72
2022/11/16 02:10:30;;;;;;;1.75;1.25;;;10.30;99.90;;;;;;5048898;28;20458;-72
2022/11/16 02:13:13;;;;;;;2.45;1.50;;;10.30;99.90;;;;;;5044135;28;20021;-73
2022/11/16 02:15:56;;;;;;;3.55;1.60;;;10.30;99.90;;;;;;5045605;28;20500;-71
2022/11/16 02:19:16;;;;;;;3.03;1.50;;;10.30;99.90;;;;;;5046843;28;20025;-71
2022/11/16 02:22:26;;;;;;;4.05;1.40;;;10.30;99.90;;;;;;5040851;28;20075;-71
2022/11/16 02:25:11;;;;;;;3.03;1.77;;;10.30;99.90;;;;;;5045690;28;20031;-71
2022/11/16 02:28:01;;;;;;;2.28;1.42;;;10.30;99.90;;;;;;5046769;28;20017;-71
2022/11/16 02:30:30;;;;;;;1.63;1.20;;;10.30;99.90;;;;;;5045759;28;20028;-71
2022/11/16 02:33:04;;;;;;;5.57;1.02;;;10.30;99.90;;;;;;5052343;28;20027;-71
2022/11/16 02:35:35;;;;;;;;;;;10.30;99.90;;;;;;5051718;28;20397;-72
2022/11/16 02:38:13;;;;;;;2.90;1.58;;;10.40;99.90;;;;;;5051355;28;19923;-72
2022/11/16 02:40:43;;;;;;;1.58;1.25;;;10.40;99.90;;;;;;5053987;28;20380;-71
2022/11/16 02:43:15;;;;;;;4.30;1.67;;;10.40;99.90;;;;;;5052627;28;20493;-72
2022/11/16 02:45:50;;;;;;;2.72;1.48;;;10.40;99.90;;;;;;5051993;28;20075;-72
2022/11/16 02:48:22;;;;;;;2.58;1.73;;;10.40;99.90;;;;;;5048018;28;20048;-72
2022/11/16 02:50:51;;;;;;;2.58;1.65;;;10.40;99.90;;;;;;5056391;28;20029;-73
2022/11/16 02:53:19;;;;;;;2.80;1.58;;;10.40;99.90;;;;;;5054492;28;20452;-73
2022/11/16 02:55:45;;;;;;;2.78;1.80;;;10.40;99.90;;;;;;5056034;28;20021;-72
2022/11/16 02:58:13;;;;;;;3.97;1.73;;;10.40;99.90;;;;;;5050537;28;20438;-72
2022/11/16 03:01:30;;;;;;;3.55;1.85;;;10.40;99.90;;;;;;5051734;28;20021;-75
2022/11/16 03:04:27;;;;;;;2.67;1.33;;;10.40;99.90;;;;;;5043623;28;20537;-72
2022/11/16 03:06:55;;;;;;;2.13;1.27;;;10.40;99.90;;;;;;5054594;28;20048;-73
2022/11/16 03:09:26;;;;;;;2.90;1.48;;;10.40;99.90;;;;;;5053814;28;20029;-74
2022/11/16 03:12:01;;;;;;;2.85;1.83;;;10.40;99.90;;;;;;5054718;28;20758;-75
2022/11/16 03:14:48;;;;;;;3.60;1.88;;;10.40;99.90;;;;;;5051629;28;20486;-75
2022/11/16 03:17:32;;;;;;;2.65;1.40;;;10.40;99.90;;;;;;5053129;28;20417;-73
2022/11/16 03:20:11;;;;;;;3.83;1.70;;;10.40;99.90;;;;;;5054601;28;20021;-73
2022/11/16 03:22:51;;;;;;;6.00;2.10;;;10.40;99.90;;;;;;5055867;28;20024;-72
2022/11/16 03:25:24;;;;;;;6.38;2.65;;;10.40;99.90;;;;;;5050219;28;20973;-71
2022/11/16 03:28:12;;;;;;;7.15;2.85;;;10.40;99.90;;;;;;5053622;28;20474;-72
2022/11/16 03:30:51;;;;;;;4.25;2.85;;;10.40;99.90;;;;;;5052512;28;20017;-74
2022/11/16 03:33:38;;;;;;;6.03;3.35;;;10.40;99.90;;;;;;5053232;28;20039;-72
2022/11/16 03:36:08;;;;;;;5.93;3.13;;;10.40;99.90;;;;;;5055795;28;20024;-74
2022/11/16 03:38:42;;;;;;;4.70;2.75;;;10.40;99.90;;;;;;5050774;28;20027;-74
2022/11/16 03:41:11;;;;;;;;;;;10.30;99.90;;;;;;5052480;28;20025;-74
2022/11/16 03:43:39;;;;;;;4.35;2.25;;;10.30;99.90;;;;;;5049034;28;19991;-74
2022/11/16 03:46:05;;;;;;;5.07;2.25;;;10.30;99.90;;;;;;5049262;28;20175;-74
2022/11/16 03:48:34;;;;;;;4.03;2.05;;;10.40;99.90;;;;;;5046858;28;20473;-74
2022/11/16 03:51:11;;;;;;;3.45;2.10;;;10.40;99.90;;;;;;5046800;28;20032;-74
2022/11/16 03:53:39;;;;;;;4.75;2.97;;;10.40;99.90;;;;;;5045934;28;20037;-74
2022/11/16 03:56:11;;;;;;;9.20;3.53;;;10.30;99.90;;;;;;5047153;28;20553;-74
2022/11/16 03:58:37;;;;;;;8.60;3.72;;;10.30;99.90;;;;;;5047011;28;20433;-74
2022/11/16 04:01:09;;;;;;;6.45;3.42;;;10.30;99.90;;;;;;5044927;28;20028;-74
2022/11/16 04:03:40;;;;;;;7.57;3.90;;;10.30;99.90;;;;;;5049294;28;20682;-73
2022/11/16 04:25:59;;;;;;;5.95;3.45;;;10.30;99.90;;;;;;5047781;28;20083;-73
2022/11/16 04:28:29;;;;;;;6.90;3.55;;;10.30;99.90;;;;;;5052981;28;20100;-74
2022/11/16 04:39:17;;;;;;;5.65;4.10;;;10.30;99.90;;;;;;5052933;28;20079;-73
2022/11/16 04:47:31;;;;;;;7.32;3.97;;;10.30;99.90;;;;;;5049849;28;20086;-74
2022/11/16 04:50:00;;;;;;;6.10;3.75;;;10.30;99.90;;;;;;5049616;28;20086;-74
2022/11/16 04:52:25;;;;;;;5.85;3.80;;;10.30;99.90;;;;;;5047262;28;20025;-74
2022/11/16 04:54:54;;;;;;;6.40;4.07;;;10.30;99.90;;;;;;5048386;28;20454;-74
2022/11/16 04:57:25;;;;;;;6.72;4.43;;;10.30;99.90;;;;;;5045864;28;20477;-74
2022/11/16 04:59:54;;;;;;;8.48;4.43;;;10.30;99.90;;;;;;5050396;28;20033;-73
2022/11/16 05:02:19;;;;;;;6.07;4.20;;;10.30;99.90;;;;;;5049417;28;20029;-74
2022/11/16 05:04:45;;;;;;;5.55;3.60;;;10.30;99.90;;;;;;5050288;28;20032;-74
2022/11/16 05:07:13;;;;;;;4.38;3.10;;;10.30;99.90;;;;;;5049309;28;20035;-74
2022/11/16 05:09:41;;;;;;;6.15;2.95;;;10.40;99.90;;;;;;5047606;28;20024;-74
2022/11/16 05:12:08;;;;;;;4.90;3.00;;;10.40;99.90;;;;;;5049595;28;20382;-74
2022/11/16 05:14:34;;;;;;;4.10;2.13;;;10.30;99.90;;;;;;5043862;28;20100;-74
2022/11/16 05:17:00;;;;;;;2.80;1.90;;;10.40;99.90;;;;;;5051686;28;20155;-74
2022/11/16 05:22:10;;;;;;;2.63;1.85;;;10.40;99.90;;;;;;5049323;28;20452;-74
2022/11/16 05:24:35;;;;;;;4.20;2.47;;;10.40;99.90;;;;;;5050453;28;20028;-74
2022/11/16 05:27:03;;;;;;;4.50;2.40;;;10.40;99.90;;;;;;5047570;28;20036;-74
2022/11/16 05:29:35;;;;;;;4.43;2.95;;;10.40;99.90;;;;;;5048434;28;20108;-75
2022/11/16 05:32:04;;;;;;;4.10;2.65;;;10.40;99.90;;;;;;5045373;28;20053;-74
2022/11/16 05:34:30;;;;;;;7.13;4.15;;;10.40;99.90;;;;;;5050595;28;20033;-75
2022/11/16 05:36:56;;;;;;;8.48;3.90;;;10.40;99.90;;;;;;5049153;28;20390;-75
2022/11/16 05:39:25;;;;;;;8.35;4.57;;;10.40;99.90;;;;;;5046814;28;20076;-74
2022/11/16 05:41:51;;;;;;;7.93;3.78;;;10.40;99.90;;;;;;5043047;28;20043;-74
2022/11/16 05:44:17;;;;;;;5.97;3.00;;;10.40;99.90;;;;;;5044815;28;20395;-76
2022/11/16 05:46:43;;;;;;;5.45;3.67;;;10.40;99.90;;;;;;5045112;28;20043;-75
2022/11/16 05:49:10;;;;;;;3.80;2.80;;;10.40;99.90;;;;;;5048536;28;20474;-75
2022/11/16 05:51:41;;;;;;;4.50;2.53;;;10.40;99.90;;;;;;5040462;28;20017;-74
2022/11/16 05:54:07;;;;;;;5.47;3.40;;;10.40;99.90;;;;;;5048021;28;20056;-74
2022/11/16 05:56:35;;;;;;;5.57;3.47;;;10.40;99.90;;;;;;5044173;28;20029;-74
2022/11/16 05:59:04;;;;;;;4.85;2.92;;;10.40;99.90;;;;;;5048609;28;20033;-74
2022/11/16 06:01:39;;;;;;;5.35;3.28;;;10.40;99.90;;;;;;5044461;28;20061;-74
2022/11/16 06:04:04;;;;;;;4.90;3.25;;;10.40;99.90;;;;;;5048732;28;20048;-74
2022/11/16 06:06:36;;;;;;;5.68;3.53;;;10.40;99.90;;;;;;5043378;28;20033;-74
2022/11/16 06:09:03;;;;;;;6.32;2.95;;;10.40;99.90;;;;;;5038539;28;20404;-74
2022/11/16 06:11:32;;;;;;;5.65;2.70;;;10.40;99.90;;;;;;5049555;28;20449;-75
2022/11/16 06:14:01;;;;;;;5.80;2.92;;;10.40;99.90;;;;;;5043217;28;20043;-75
2022/11/16 06:16:30;;;;;;;4.57;2.28;;;10.40;99.90;;;;;;5047699;28;20024;-75
2022/11/16 06:19:11;;;;;;;5.00;2.47;;;10.40;99.90;;;;;;5048366;28;20488;-74
2022/11/16 06:21:36;;;;;;;3.72;2.53;;;10.40;99.90;;;;;;5049747;28;20025;-74
2022/11/16 06:24:07;;;;;;;5.22;2.17;;;10.40;99.90;;;;;;5048649;28;20036;-74
2022/11/16 06:26:33;;;;;;;2.30;1.70;;;10.40;99.90;;;;;;5038461;28;20032;-75
2022/11/16 06:28:59;;;;;;;4.60;2.55;;;10.40;99.90;;;;;;5039571;28;20389;-75
2022/11/16 06:31:24;;;;;;;4.80;2.40;;;10.40;99.90;;;;;;5044914;28;20676;-73
2022/11/16 06:33:50;;;;;;;4.00;2.25;;;10.40;99.90;;;;;;5043933;28;20053;-76
2022/11/16 06:36:16;;;;;;;3.25;2.10;;;10.30;99.90;;;;;;5044917;28;20086;-76
2022/11/16 06:38:41;;;;;;;3.88;1.75;;;10.30;99.90;;;;;;5043567;28;20083;-75
2022/11/16 06:41:07;;;;;;;5.40;2.53;;;10.30;99.90;;;;;;5040309;28;20159;-75
2022/11/16 06:43:32;;;;;;;4.90;2.10;;;10.30;99.90;;;;;;5049250;28;20025;-76
2022/11/16 06:45:58;;;;;;;3.03;2.20;;;10.30;99.90;;;;;;5041147;28;20024;-75
2022/11/16 06:48:24;;;;;;;2.83;2.00;;;10.30;99.90;;;;;;5043606;28;20033;-76
2022/11/16 06:50:51;;;;;;;4.82;1.83;;;10.30;99.90;;;;;;5041525;28;20028;-75
2022/11/16 06:53:17;;;;;;;3.83;2.40;;;10.20;99.90;;;;;;5046967;28;20031;-75
2022/11/16 06:55:43;;;;;;;3.50;2.17;;;10.20;99.90;;;;;;5049662;28;20662;-75
2022/11/16 06:58:09;;;;;;;3.67;2.22;;;10.20;99.90;;;;;;5045724;28;20497;-76
2022/11/16 07:00:35;;;;;;;4.72;2.53;;;10.20;99.90;;;;;;5043474;28;20021;-77
2022/11/16 07:03:02;;;;;;;4.05;2.80;;;10.20;99.90;;;;;;5058960;28;20029;-77
2022/11/16 07:05:28;;;;;;;5.25;2.90;;;10.10;99.90;;;;;;5047740;28;20036;-76
2022/11/16 07:07:54;;;;;;;8.00;3.33;;;10.20;99.90;;;;;;5044697;28;20045;-76
2022/11/16 07:10:20;;;;;;;7.93;3.72;;;10.10;99.90;;;;;;5041586;23;20120;-77
2022/11/16 07:12:46;;;;;;;5.78;3.58;;;10.10;99.90;;;;;;5032223;28;20441;-77
2022/11/16 07:15:11;;;;;;;6.85;3.90;;;10.10;99.90;;;;;;5031589;28;20032;-77
2022/11/16 07:17:37;;;;;;;4.40;3.38;;;10.10;99.90;;;;;;5025412;28;20049;-78
2022/11/16 07:20:03;;;;;;;5.47;3.67;;;10.20;99.90;;;;;;5025386;28;20069;-77
2022/11/16 07:22:29;;;;;;;6.22;3.90;;;10.20;99.90;;;;;;5028338;28;20064;-77
2022/11/16 07:24:54;;;;;;;6.55;3.97;;;10.20;99.90;;;;;;5036550;28;20034;-75
2022/11/16 07:27:20;;;;;;;6.97;4.18;;;10.20;99.90;;;;;;5027927;28;20038;-77
2022/11/16 07:29:46;;;;;;;6.00;4.43;;;10.20;99.90;;;;;;5035416;28;20030;-76
2022/11/16 07:32:11;;;;;;;7.65;3.67;;;10.20;99.90;;;;;;5036345;28;20024;-77
2022/11/16 07:34:37;;;;;;;7.82;4.35;;;10.20;99.90;;;;;;5036039;28;20028;-76
2022/11/16 07:37:02;;;;;;;7.15;4.53;;;10.20;99.90;;;;;;5035967;28;20107;-78
2022/11/16 07:39:28;;;;;;;10.30;5.65;;;10.20;99.90;;;;;;5033742;28;20390;-78
2022/11/16 07:41:54;;;;;;;7.35;4.65;;;10.20;99.90;;;;;;5036497;28;20505;-78
2022/11/16 07:44:19;;;;;;;7.97;4.93;;;10.20;99.90;;;;;;5036275;28;20440;-77
2022/11/16 07:46:45;;;;;;;7.75;5.18;;;10.20;99.90;;;;;;5029684;28;20025;-77
2022/11/16 07:49:16;;;;;;;8.30;5.03;;;10.10;99.90;;;;;;5024985;28;20071;-77
2022/11/16 07:51:43;;;;;;;5.43;3.90;;;10.10;99.90;;;;;;5033180;28;20528;-77
2022/11/16 07:54:12;;;;;;;8.48;4.88;;;10.20;99.90;;;;;;5030850;28;20026;-77
2022/11/16 07:56:38;;;;;;;8.30;4.03;;;10.20;99.90;;;;;;5023290;28;20021;-77
2022/11/16 07:59:04;;;;;;;9.43;5.45;;;10.20;99.90;;;;;;5035282;28;20064;-76
2022/11/16 08:01:31;;;;;;;8.23;4.82;;;10.20;99.90;;;;;;5033916;28;20120;-76
2022/11/16 08:03:58;;;;;;;24.40;13.07;;;10.20;99.90;;;;;;5035252;28;20022;-77
2022/11/16 08:06:26;;;;;;;15.75;9.98;;;10.20;99.90;;;;;;5033839;28;20086;-77
2022/11/16 08:08:52;;;;;;;6.70;5.05;;;10.20;99.90;;;;;;5035146;28;20087;-77
2022/11/16 08:11:18;;;;;;;6.85;4.18;;;10.20;99.90;;;;;;5035539;28;20100;-77
2022/11/16 08:13:44;;;;;;;6.55;4.35;;;10.30;99.90;;;;;;5035214;28;20031;-77
2022/11/16 08:16:16;;;;;;;6.78;3.40;;;10.40;99.90;;;;;;5035348;28;20032;-77
2022/11/16 08:18:42;;;;;;;5.40;3.70;;;10.40;99.90;;;;;;5033935;28;20029;-77
2022/11/16 08:21:11;;;;;;;5.35;3.58;;;10.40;99.90;;;;;;5035133;28;20083;-77
2022/11/16 08:23:39;;;;;;;7.53;3.25;;;10.50;99.90;;;;;;5034997;28;20113;-77
2022/11/16 08:26:08;;;;;;;5.93;3.47;;;10.50;99.90;;;;;;5034655;28;20035;-76
2022/11/16 08:28:34;;;;;;;6.60;3.72;;;10.50;99.90;;;;;;5032343;28;20030;-77
2022/11/16 08:31:07;;;;;;;4.82;3.65;;;10.50;99.90;;;;;;5031287;28;20044;-77
2022/11/16 08:33:32;;;;;;;4.53;3.33;;;10.50;99.90;;;;;;5033462;28;20096;-77
2022/11/16 08:36:03;;;;;;;8.57;6.18;;;10.60;99.90;;;;;;5034750;28;20029;-77
2022/11/16 08:38:28;;;;;;;5.70;3.83;;;10.60;99.90;;;;;;5034915;28;20037;-77
2022/11/16 08:40:54;;;;;;;6.93;3.42;;;10.70;99.90;;;;;;5032923;28;20017;-77
2022/11/16 08:43:20;;;;;;;5.75;3.22;;;10.70;99.90;;;;;;5033161;28;20025;-76
2022/11/16 08:45:51;;;;;;;5.13;2.78;;;10.70;99.90;;;;;;5034233;28;20525;-77
2022/11/16 08:48:17;;;;;;;5.00;2.65;;;10.80;99.90;;;;;;5034970;28;20096;-77
2022/11/16 08:50:43;;;;;;;5.18;2.78;;;10.80;99.90;;;;;;5035941;28;20032;-78
2022/11/16 08:53:09;;;;;;;4.70;2.85;;;10.80;99.90;;;;;;5034030;28;20018;-77
2022/11/16 08:55:35;;;;;;;5.53;2.70;;;10.90;99.90;;;;;;5036170;28;20047;-78
2022/11/16 08:58:01;;;;;;;11.57;2.97;;;10.90;99.90;;;;;;5037289;28;20022;-78
2022/11/16 09:00:26;;;;;;;6.07;2.72;;;10.90;99.90;;;;;;5016663;28;20032;-76
2022/11/16 09:02:52;;;;;;;4.85;2.50;;;10.90;99.90;;;;;;5024128;28;20036;-78
2022/11/16 09:05:17;;;;;;;6.13;2.30;;;10.90;99.90;;;;;;5033576;28;20460;-76
2022/11/16 09:07:44;;;;;;;3.22;2.40;;;11.00;99.90;;;;;;5034599;28;20060;-77
2022/11/16 09:10:11;;;;;;;5.93;2.38;;;11.00;99.90;;;;;;5033148;28;20029;-77
2022/11/16 09:12:37;;;;;;;4.68;2.53;;;11.10;99.90;;;;;;5031288;28;20083;-76
2022/11/16 09:15:04;;;;;;;4.20;1.70;;;11.10;99.90;;;;;;5034749;28;20018;-76
2022/11/16 09:17:31;;;;;;;3.47;1.83;;;11.20;99.90;;;;;;5034816;28;20078;-77
2022/11/16 09:19:57;;;;;;;3.28;1.50;;;11.20;99.90;;;;;;5033411;28;20061;-76
2022/11/16 09:22:22;;;;;;;2.78;1.65;;;11.20;99.90;;;;;;5034812;28;20103;-75
2022/11/16 09:24:48;;;;;;;7.40;2.00;;;11.20;99.90;;;;;;5034902;28;20563;-77
2022/11/16 09:27:15;;;;;;;4.50;1.88;;;11.30;99.90;;;;;;5036638;28;20026;-77
2022/11/16 09:29:41;;;;;;;5.20;1.33;;;11.30;99.90;;;;;;5031985;28;20496;-77
2022/11/16 09:32:06;;;;;;;5.03;1.77;;;11.40;99.90;;;;;;5031382;28;20025;-77
2022/11/16 09:34:35;;;;;;;6.95;1.83;;;11.50;99.90;;;;;;5031441;28;20026;-78
2022/11/16 09:37:01;;;;;;;3.80;1.38;;;11.60;99.90;;;;;;5034581;28;20030;-77
2022/11/16 09:39:30;;;;;;;3.70;1.70;;;11.70;99.90;;;;;;5034769;28;20037;-77
2022/11/16 09:42:05;;;;;;;2.35;1.27;;;11.80;99.90;;;;;;5033593;28;20047;-76
2022/11/16 09:44:39;;;;;;;1.92;0.73;;;11.90;99.90;;;;;;5034560;28;20061;-77
2022/11/16 09:47:14;;;;;;;3.25;0.90;;;12.00;99.90;;;;;;5034392;28;20030;-77
2022/11/16 09:49:46;;;;;;;3.10;0.88;;;12.10;99.90;;;;;;5033426;28;20622;-77
2022/11/16 09:52:25;;;;;;;3.83;1.00;;;12.10;99.90;;;;;;5033908;28;20052;-77
2022/11/16 09:54:53;;;;;;;1.40;0.68;;;12.20;99.90;;;;;;5033410;28;20067;-77
2022/11/16 09:57:28;;;;;;;2.90;0.88;;;12.20;99.90;;;;;;5033659;28;20025;-77
2022/11/16 09:59:59;;;;;;;1.83;0.68;;;12.30;99.90;;;;;;5033952;28;20069;-78
2022/11/16 10:02:42;;;;;;;2.70;0.95;;;12.30;99.90;;;;;;5032942;28;20030;-77
2022/11/16 10:05:13;;;;;;;1.80;0.90;;;12.30;99.90;;;;;;5034165;28;20034;-76
2022/11/16 10:07:43;;;;;;;2.95;0.70;;;12.30;99.90;;;;;;5033566;28;20029;-77
2022/11/16 10:10:15;;;;;;;1.80;0.90;;;12.30;99.90;;;;;;5033137;28;20038;-77
2022/11/16 10:12:49;;;;;;;2.80;1.15;;;12.40;99.90;;;;;;5032308;28;20033;-77
2022/11/16 10:15:30;;;;;;;4.85;2.20;;;12.40;99.90;;;;;;5033713;28;20033;-77
2022/11/16 10:18:15;;;;;;;3.00;1.00;;;12.40;99.90;;;;;;5031735;28;20486;-77
2022/11/16 10:21:06;;;;;;;1.85;0.90;;;12.40;99.90;;;;;;5038257;28;20078;-78
2022/11/16 10:23:48;;;;;;;6.28;1.08;;;12.40;99.90;;;;;;5033743;28;20044;-77
2022/11/16 10:26:22;;;;;;;3.47;1.00;;;12.50;99.90;;;;;;5028744;28;20399;-77
2022/11/16 10:29:00;;;;;;;2.17;0.82;;;12.60;99.90;;;;;;5039244;28;20135;-78
2022/11/16 10:31:44;;;;;;;3.78;1.15;;;12.60;99.90;;;;;;5032498;28;20060;-77
2022/11/16 10:34:18;;;;;;;;;;;12.70;99.90;;;;;;5026015;28;20038;-78
2022/11/16 10:36:44;;;;;;;3.33;1.10;;;12.80;99.90;;;;;;5031236;28;19940;-78
2022/11/16 10:39:18;;;;;;;1.70;0.85;;;12.80;99.90;;;;;;5034277;28;20044;-78
2022/11/16 10:41:49;;;;;;;2.00;1.02;;;12.90;99.90;;;;;;5038007;28;20088;-77
2022/11/16 10:44:42;;;;;;;2.85;0.90;;;12.90;99.90;;;;;;5034581;28;20068;-77
2022/11/16 10:47:41;;;;;;;3.72;1.05;;;12.80;99.90;;;;;;5033122;28;20033;-77
2022/11/16 10:50:31;;;;;;;2.83;0.63;;;12.70;99.90;;;;;;5029238;28;20038;-77
2022/11/16 10:52:57;;;;;;;5.40;0.77;;;12.60;99.90;;;;;;5032996;28;20017;-77
2022/11/16 10:55:27;;;;;;;2.67;0.88;;;12.50;99.90;;;;;;5036669;28;20024;-76
2022/11/16 10:58:04;;;;;;;4.70;1.25;;;12.50;99.90;;;;;;5035946;28;20029;-77
2022/11/16 11:00:42;;;;;;;8.70;2.08;;;12.40;99.90;;;;;;5037391;28;20037;-77
2022/11/16 11:03:09;;;;;;;2.65;0.70;;;12.40;99.90;;;;;;5036058;28;20025;-76
2022/11/16 11:05:54;;;;;;;3.35;1.00;;;12.30;99.90;;;;;;5033552;28;20025;-78
2022/11/16 11:08:29;;;;;;;3.00;0.88;;;12.30;99.90;;;;;;5032905;28;20034;-77
2022/11/16 11:12:36;;;;;;;4.45;1.08;;;12.20;99.90;;;;;;5031534;28;20049;-77
2022/11/16 11:14:10;;;;;;;3.10;1.35;;;12.20;99.90;;;;;;5035040;28;20079;-77
2022/11/16 11:16:36;;;;;;;3.42;0.95;;;12.10;99.90;;;;;;5034146;28;20021;-77
2022/11/16 11:19:26;;;;;;;4.25;0.95;;;12.10;99.90;;;;;;5033536;28;20152;-76
2022/11/16 11:21:57;;;;;;;5.35;0.93;;;12.10;99.90;;;;;;5036130;28;20029;-76
2022/11/16 11:24:24;;;;;;;1.95;0.93;;;12.10;99.90;;;;;;5035663;28;20033;-76
2022/11/16 11:26:56;;;;;;;1.55;0.90;;;12.20;99.90;;;;;;5035798;28;20030;-77
2022/11/16 11:29:36;;;;;;;3.53;1.40;;;12.20;99.90;;;;;;5034936;28;20152;-78
2022/11/16 11:32:23;;;;;;;3.60;1.40;;;12.30;99.90;;;;;;5021917;28;20085;-78
2022/11/16 11:34:52;;;;;;;2.60;0.82;;;12.30;99.90;;;;;;5018773;28;20021;-77
2022/11/16 11:37:26;;;;;;;2.72;0.90;;;12.30;99.90;;;;;;5034300;28;20047;-76
2022/11/16 11:40:17;;;;;;;2.15;0.70;;;12.40;99.90;;;;;;5035407;28;20024;-77
2022/11/16 11:42:52;;;;;;;3.80;1.27;;;12.40;99.90;;;;;;5035853;28;20038;-76
2022/11/16 11:45:20;;;;;;;3.00;0.77;;;12.40;99.90;;;;;;5034123;28;20052;-77
2022/11/16 11:48:28;;;;;;;11.55;1.15;;;12.50;99.90;;;;;;5037007;28;20036;-77
2022/11/16 11:50:57;;;;;;;3.42;0.73;;;12.50;99.90;;;;;;5013743;28;20116;-77
2022/11/16 11:53:35;;;;;;;3.55;0.60;;;12.50;99.90;;;;;;5036872;28;20048;-78
2022/11/16 11:56:01;;;;;;;4.22;0.90;;;12.60;99.90;;;;;;5036721;28;20037;-78
2022/11/16 11:58:34;;;;;;;2.63;0.80;;;12.60;99.90;;;;;;5036791;28;20025;-77
2022/11/16 12:01:30;;;;;;;2.10;0.73;;;12.70;99.90;;;;;;5036237;28;20064;-77
2022/11/16 12:04:11;;;;;;;5.82;0.90;;;12.70;99.90;;;;;;5035620;28;20392;-76
2022/11/16 12:07:04;;;;;;;3.88;1.02;;;12.70;99.90;;;;;;5034225;28;20096;-77
2022/11/16 12:09:35;;;;;;;4.45;0.77;;;12.80;99.90;;;;;;5034290;28;20036;-76
2022/11/16 12:12:20;;;;;;;3.85;0.75;;;12.90;99.90;;;;;;5026984;28;20579;-77
2022/11/16 12:15:07;;;;;;;2.75;1.05;;;13.00;99.90;;;;;;5034794;28;20022;-76
2022/11/16 12:17:54;;;;;;;3.58;1.13;;;13.10;99.90;;;;;;5033538;28;20509;-77
2022/11/16 12:20:33;;;;;;;3.08;1.08;;;13.20;99.90;;;;;;5034742;28;20034;-77
2022/11/16 12:23:20;;;;;;;3.78;1.23;;;13.20;99.90;;;;;;5028257;28;20032;-76
2022/11/16 12:26:18;;;;;;;2.35;0.63;;;13.30;99.90;;;;;;5023955;28;20029;-76
2022/11/16 12:29:13;;;;;;;4.70;1.20;;;13.40;99.90;;;;;;5024920;28;20161;-76
2022/11/16 12:31:47;;;;;;;2.88;0.73;;;13.40;99.90;;;;;;5014653;28;20026;-76
2022/11/16 12:34:51;;;;;;;2.22;0.70;;;13.50;99.90;;;;;;5013341;28;20048;-77
2022/11/16 12:37:34;;;;;;;2.33;0.80;;;13.50;99.90;;;;;;5014303;28;20014;-77
2022/11/16 12:40:27;;;;;;;3.17;0.70;;;13.60;99.90;;;;;;5014239;28;20021;-77
2022/11/16 12:43:28;;;;;;;2.75;1.00;;;13.60;99.90;;;;;;5016424;28;20052;-76
2022/11/16 12:46:14;;;;;;;3.28;0.90;;;13.70;99.90;;;;;;5031878;28;20041;-76
2022/11/16 12:49:23;;;;;;;2.58;0.80;;;13.70;99.90;;;;;;5033894;28;20033;-76
2022/11/16 12:52:09;;;;;;;1.73;0.63;;;13.70;99.90;;;;;;5033833;28;20470;-76
2022/11/16 12:54:48;;;;;;;3.97;0.85;;;13.70;99.90;;;;;;5016365;28;20053;-77
2022/11/16 12:57:13;;;;;;;2.58;0.63;;;13.70;99.90;;;;;;5012907;28;20308;-77
2022/11/16 13:00:08;;;;;;;4.72;1.02;;;13.80;99.90;;;;;;5017810;28;20036;-76
2022/11/16 13:02:55;;;;;;;6.38;0.80;;;13.80;99.90;;;;;;5033545;28;20039;-77
2022/11/16 13:05:47;;;;;;;6.43;0.93;;;14.00;99.90;;;;;;5026417;28;20054;-77
2022/11/16 13:08:40;;;;;;;4.43;1.45;;;14.10;99.90;;;;;;5016618;28;20402;-76
2022/11/16 13:11:31;;;;;;;4.10;0.73;;;14.10;99.90;;;;;;5042272;22;20163;-78
2022/11/16 13:14:01;;;;;;;3.95;0.60;;;14.20;99.90;;;;;;4999301;28;20128;-78
2022/11/16 13:16:30;;;;;;;4.28;1.30;;;14.10;99.90;;;;;;5028605;28;20021;-77
2022/11/16 13:18:57;;;;;;;5.80;0.70;;;14.20;99.90;;;;;;5024526;28;20029;-78
2022/11/16 13:21:41;;;;;;;4.38;0.57;;;14.20;99.90;;;;;;5025146;28;20034;-78
2022/11/16 13:24:28;;;;;;;5.30;0.90;;;14.20;99.90;;;;;;5023793;28;20034;-78
2022/11/16 13:27:20;;;;;;;6.50;1.10;;;14.10;99.90;;;;;;5030707;28;20481;-78
2022/11/16 13:29:51;;;;;;;6.22;0.73;;;14.00;99.90;;;;;;5018641;28;20475;-77
2022/11/16 13:32:26;;;;;;;4.85;0.93;;;13.90;99.90;;;;;;5029720;28;20454;-78
2022/11/16 13:34:58;;;;;;;3.95;1.30;;;13.80;99.90;;;;;;5029593;28;20034;-78
2022/11/16 13:37:40;;;;;;;3.95;1.13;;;13.80;99.90;;;;;;5030434;28;20029;-77
2022/11/16 13:40:05;;;;;;;8.82;0.82;;;13.70;99.90;;;;;;5027041;28;20033;-78
2022/11/16 13:42:41;;;;;;;2.33;1.10;;;13.60;99.90;;;;;;5028712;28;20033;-78
2022/11/16 13:45:21;;;;;;;5.03;0.80;;;13.50;99.90;;;;;;5027222;28;20032;-78
2022/11/16 13:47:53;;;;;;;3.67;0.63;;;13.50;99.90;;;;;;5029768;28;20033;-78
2022/11/16 13:50:21;;;;;;;5.40;0.90;;;13.50;99.90;;;;;;5025516;28;20529;-78
2022/11/16 13:52:50;;;;;;;0.75;0.43;;;13.40;99.90;;;;;;5031773;28;20506;-77
2022/11/16 13:55:28;;;;;;;3.78;1.55;;;13.40;99.90;;;;;;5024691;28;20036;-78
2022/11/16 13:57:56;;;;;;;4.47;0.90;;;13.40;99.90;;;;;;5024160;28;20025;-77
2022/11/16 14:00:32;;;;;;;4.22;1.20;;;13.40;99.90;;;;;;5024375;28;20118;-77